sensor_id;sensor_type;location;lat;lon;timestamp;pressure;altitude;pressure_sealevel;temperature;humidity
64889;BME280;51386;53.082;8.816;2022-08-19T00:01:50;101224.91;;;25.21;52.96
64889;BME280;51386;53.082;8.816;2022-08-19T00:04:23;101238.09;;;25.17;53.12
64889;BME280;51386;53.082;8.816;2022-08-19T00:06:52;101242.13;;;25.15;53.25
64889;BME280;51386;53.082;8.816;2022-08-19T00:09:22;101247.81;;;25.18;53.30
64889;BME280;51386;53.082;8.816;2022-08-19T00:11:51;101251.34;;;25.24;53.57
64889;BME280;51386;53.082;8.816;2022-08-19T00:14:19;101243.31;;;25.29;53.25
64889;BME280;51386;53.082;8.816;2022-08-19T00:16:49;101241.44;;;25.34;53.33
64889;BME280;51386;53.082;8.816;2022-08-19T00:19:18;101243.06;;;25.35;52.96
64889;BME280;51386;53.082;8.816;2022-08-19T00:21:46;101232.28;;;25.35;52.96
64889;BME280;51386;53.082;8.816;2022-08-19T00:24:14;101240.66;;;25.39;53.02
64889;BME280;51386;53.082;8.816;2022-08-19T00:26:44;101237.69;;;25.35;52.91
64889;BME280;51386;53.082;8.816;2022-08-19T00:29:17;101240.88;;;25.32;53.11
64889;BME280;51386;53.082;8.816;2022-08-19T00:31:45;101241.41;;;25.29;52.90
64889;BME280;51386;53.082;8.816;2022-08-19T00:34:15;101236.00;;;25.24;52.34
64889;BME280;51386;53.082;8.816;2022-08-19T00:36:43;101236.78;;;25.20;52.58
64889;BME280;51386;53.082;8.816;2022-08-19T00:39:12;101243.50;;;25.17;52.21
64889;BME280;51386;53.082;8.816;2022-08-19T00:41:40;101231.59;;;25.13;52.76
64889;BME280;51386;53.082;8.816;2022-08-19T00:44:11;101232.41;;;25.14;52.69
64889;BME280;51386;53.082;8.816;2022-08-19T00:46:44;101239.66;;;25.13;52.72
64889;BME280;51386;53.082;8.816;2022-08-19T00:49:27;101239.13;;;25.11;52.55
64889;BME280;51386;53.082;8.816;2022-08-19T00:52:07;101238.31;;;25.11;52.74
64889;BME280;51386;53.082;8.816;2022-08-19T00:54:37;101238.06;;;25.12;52.38
64889;BME280;51386;53.082;8.816;2022-08-19T00:57:10;101238.91;;;25.18;52.37
64889;BME280;51386;53.082;8.816;2022-08-19T00:59:46;101237.59;;;25.25;53.10
64889;BME280;51386;53.082;8.816;2022-08-19T01:02:30;101235.25;;;25.34;53.06
64889;BME280;51386;53.082;8.816;2022-08-19T01:05:00;101231.78;;;25.38;52.40
64889;BME280;51386;53.082;8.816;2022-08-19T01:07:28;101237.16;;;25.38;52.03
64889;BME280;51386;53.082;8.816;2022-08-19T01:10:08;101232.03;;;25.37;52.22
64889;BME280;51386;53.082;8.816;2022-08-19T01:12:37;101236.03;;;25.34;52.92
64889;BME280;51386;53.082;8.816;2022-08-19T01:15:08;101231.19;;;25.31;52.67
64889;BME280;51386;53.082;8.816;2022-08-19T01:17:38;101231.19;;;25.31;52.54
64889;BME280;51386;53.082;8.816;2022-08-19T01:20:12;101223.88;;;25.27;52.70
64889;BME280;51386;53.082;8.816;2022-08-19T01:22:46;101209.56;;;25.21;52.29
64889;BME280;51386;53.082;8.816;2022-08-19T01:25:15;101207.91;;;25.20;52.39
64889;BME280;51386;53.082;8.816;2022-08-19T01:27:46;101203.06;;;25.17;52.04
64889;BME280;51386;53.082;8.816;2022-08-19T01:30:25;101211.91;;;25.13;51.88
64889;BME280;51386;53.082;8.816;2022-08-19T01:32:54;101200.34;;;25.12;52.32
64889;BME280;51386;53.082;8.816;2022-08-19T01:35:24;101200.03;;;25.09;52.36
64889;BME280;51386;53.082;8.816;2022-08-19T01:37:56;101192.72;;;25.04;52.92
64889;BME280;51386;53.082;8.816;2022-08-19T01:40:28;101194.88;;;25.02;52.99
64889;BME280;51386;53.082;8.816;2022-08-19T01:42:58;101195.38;;;24.99;52.41
64889;BME280;51386;53.082;8.816;2022-08-19T01:45:29;101187.56;;;24.98;52.79
64889;BME280;51386;53.082;8.816;2022-08-19T01:47:58;101173.53;;;24.96;52.70
64889;BME280;51386;53.082;8.816;2022-08-19T01:50:29;101187.25;;;24.94;53.24
64889;BME280;51386;53.082;8.816;2022-08-19T01:52:59;101170.53;;;24.92;52.71
64889;BME280;51386;53.082;8.816;2022-08-19T01:55:36;101172.41;;;24.92;53.14
64889;BME280;51386;53.082;8.816;2022-08-19T01:58:12;101173.50;;;24.91;53.12
64889;BME280;51386;53.082;8.816;2022-08-19T02:00:41;101166.25;;;24.91;52.97
64889;BME280;51386;53.082;8.816;2022-08-19T02:03:09;101185.09;;;24.96;52.97
64889;BME280;51386;53.082;8.816;2022-08-19T02:05:38;101178.69;;;25.02;53.01
64889;BME280;51386;53.082;8.816;2022-08-19T02:08:08;101184.09;;;25.02;52.76
64889;BME280;51386;53.082;8.816;2022-08-19T02:10:40;101176.28;;;25.01;52.76
64889;BME280;51386;53.082;8.816;2022-08-19T02:13:08;101169.53;;;24.98;52.56
64889;BME280;51386;53.082;8.816;2022-08-19T02:15:37;101167.34;;;24.95;53.00
64889;BME280;51386;53.082;8.816;2022-08-19T02:18:05;101167.03;;;24.92;53.37
64889;BME280;51386;53.082;8.816;2022-08-19T02:20:33;101162.97;;;24.89;53.49
64889;BME280;51386;53.082;8.816;2022-08-19T02:23:00;101154.34;;;24.87;53.39
64889;BME280;51386;53.082;8.816;2022-08-19T02:25:29;101143.28;;;24.83;53.45
64889;BME280;51386;53.082;8.816;2022-08-19T02:27:57;101142.16;;;24.79;53.60
64889;BME280;51386;53.082;8.816;2022-08-19T02:30:25;101139.72;;;24.78;53.43
64889;BME280;51386;53.082;8.816;2022-08-19T02:32:52;101133.03;;;24.80;54.04
64889;BME280;51386;53.082;8.816;2022-08-19T02:35:21;101140.31;;;24.85;53.57
64889;BME280;51386;53.082;8.816;2022-08-19T02:37:48;101132.78;;;24.87;53.79
64889;BME280;51386;53.082;8.816;2022-08-19T02:40:35;101135.47;;;24.87;52.98
64889;BME280;51386;53.082;8.816;2022-08-19T02:43:06;101133.88;;;24.86;52.82
64889;BME280;51386;53.082;8.816;2022-08-19T02:45:37;101133.34;;;24.84;52.98
64889;BME280;51386;53.082;8.816;2022-08-19T02:48:08;101144.09;;;24.84;53.00
64889;BME280;51386;53.082;8.816;2022-08-19T02:50:49;101140.03;;;24.81;53.27
64889;BME280;51386;53.082;8.816;2022-08-19T02:53:24;101143.78;;;24.80;53.33
64889;BME280;51386;53.082;8.816;2022-08-19T02:55:55;101135.97;;;24.79;53.22
64889;BME280;51386;53.082;8.816;2022-08-19T02:58:23;101132.19;;;24.80;53.38
64889;BME280;51386;53.082;8.816;2022-08-19T03:00:54;101129.78;;;24.78;53.90
64889;BME280;51386;53.082;8.816;2022-08-19T03:03:22;101127.63;;;24.80;53.23
64889;BME280;51386;53.082;8.816;2022-08-19T03:05:50;101127.63;;;24.80;53.55
64889;BME280;51386;53.082;8.816;2022-08-19T03:08:24;101127.94;;;24.84;53.65
64889;BME280;51386;53.082;8.816;2022-08-19T03:10:54;101138.19;;;24.87;53.17
64889;BME280;51386;53.082;8.816;2022-08-19T03:13:22;101141.19;;;24.91;53.52
64889;BME280;51386;53.082;8.816;2022-08-19T03:15:50;101143.38;;;24.94;53.69
64889;BME280;51386;53.082;8.816;2022-08-19T03:18:17;101149.56;;;24.99;53.17
64889;BME280;51386;53.082;8.816;2022-08-19T03:20:48;101158.22;;;25.01;53.09
64889;BME280;51386;53.082;8.816;2022-08-19T03:23:17;101160.38;;;25.04;53.06
64889;BME280;51386;53.082;8.816;2022-08-19T03:25:47;101169.03;;;25.06;52.49
64889;BME280;51386;53.082;8.816;2022-08-19T03:28:37;101168.50;;;25.09;52.36
64889;BME280;51386;53.082;8.816;2022-08-19T03:31:10;101167.47;;;25.15;52.21
64889;BME280;51386;53.082;8.816;2022-08-19T03:33:58;101170.50;;;25.24;52.33
64889;BME280;51386;53.082;8.816;2022-08-19T03:36:27;101177.78;;;25.28;51.30
64889;BME280;51386;53.082;8.816;2022-08-19T03:38:58;101167.53;;;25.25;51.28
64889;BME280;51386;53.082;8.816;2022-08-19T03:41:30;101171.28;;;25.19;51.55
64889;BME280;51386;53.082;8.816;2022-08-19T03:44:13;101159.91;;;25.12;51.40
64889;BME280;51386;53.082;8.816;2022-08-19T03:46:45;101165.81;;;25.09;51.51
64889;BME280;51386;53.082;8.816;2022-08-19T03:49:14;101174.72;;;25.10;52.06
64889;BME280;51386;53.082;8.816;2022-08-19T03:51:45;101173.91;;;25.09;51.88
64889;BME280;51386;53.082;8.816;2022-08-19T03:54:15;101171.75;;;25.11;51.61
64889;BME280;51386;53.082;8.816;2022-08-19T03:56:45;101174.97;;;25.08;51.80
64889;BME280;51386;53.082;8.816;2022-08-19T03:59:18;101183.03;;;25.08;51.52
64889;BME280;51386;53.082;8.816;2022-08-19T04:01:45;101183.03;;;25.08;51.24
64889;BME280;51386;53.082;8.816;2022-08-19T04:04:13;101185.50;;;25.10;51.52
64889;BME280;51386;53.082;8.816;2022-08-19T04:06:40;101184.16;;;25.12;52.13
64889;BME280;51386;53.082;8.816;2022-08-19T04:09:10;101178.25;;;25.15;51.75
64889;BME280;51386;53.082;8.816;2022-08-19T04:11:41;101190.16;;;25.19;51.38
64889;BME280;51386;53.082;8.816;2022-08-19T04:14:15;101189.59;;;25.22;51.66
64889;BME280;51386;53.082;8.816;2022-08-19T04:16:44;101188.53;;;25.23;51.43
64889;BME280;51386;53.082;8.816;2022-08-19T04:19:14;101194.75;;;25.24;51.50
64889;BME280;51386;53.082;8.816;2022-08-19T04:21:44;101188.50;;;25.18;50.94
64889;BME280;51386;53.082;8.816;2022-08-19T04:24:13;101185.50;;;25.10;50.88
64889;BME280;51386;53.082;8.816;2022-08-19T04:26:41;101181.91;;;24.99;51.65
64889;BME280;51386;53.082;8.816;2022-08-19T04:29:12;101186.97;;;24.91;51.80
64889;BME280;51386;53.082;8.816;2022-08-19T04:31:42;101182.31;;;24.81;51.51
64889;BME280;51386;53.082;8.816;2022-08-19T04:34:15;101186.25;;;24.73;51.82
64889;BME280;51386;53.082;8.816;2022-08-19T04:36:45;101181.09;;;24.67;52.19
64889;BME280;51386;53.082;8.816;2022-08-19T04:39:15;101192.88;;;24.61;52.48
64889;BME280;51386;53.082;8.816;2022-08-19T04:41:44;101200.41;;;24.59;52.12
64889;BME280;51386;53.082;8.816;2022-08-19T04:44:30;101196.06;;;24.53;52.69
64889;BME280;51386;53.082;8.816;2022-08-19T04:47:01;101197.06;;;24.47;52.62
64889;BME280;51386;53.082;8.816;2022-08-19T04:49:37;101187.00;;;24.37;52.65
64889;BME280;51386;53.082;8.816;2022-08-19T04:52:05;101196.34;;;24.30;52.57
64889;BME280;51386;53.082;8.816;2022-08-19T04:54:32;101192.47;;;24.20;53.13
64889;BME280;51386;53.082;8.816;2022-08-19T04:57:07;101186.50;;;24.13;52.99
64889;BME280;51386;53.082;8.816;2022-08-19T04:59:38;101196.13;;;24.09;53.59
64889;BME280;51386;53.082;8.816;2022-08-19T05:02:09;101201.53;;;24.09;53.34
64889;BME280;51386;53.082;8.816;2022-08-19T05:04:37;101191.72;;;24.03;53.57
64889;BME280;51386;53.082;8.816;2022-08-19T05:07:07;101187.41;;;24.02;53.75
64889;BME280;51386;53.082;8.816;2022-08-19T05:09:35;101203.81;;;24.01;53.89
64889;BME280;51386;53.082;8.816;2022-08-19T05:12:23;101209.44;;;23.99;53.49
64889;BME280;51386;53.082;8.816;2022-08-19T05:14:56;101213.75;;;24.00;54.10
64889;BME280;51386;53.082;8.816;2022-08-19T05:17:27;101209.44;;;23.99;53.83
64889;BME280;51386;53.082;8.816;2022-08-19T05:19:59;101215.91;;;23.98;54.15
64889;BME280;51386;53.082;8.816;2022-08-19T05:22:47;101215.38;;;24.01;53.74
64889;BME280;51386;53.082;8.816;2022-08-19T05:25:18;101207.84;;;24.03;54.01
64889;BME280;51386;53.082;8.816;2022-08-19T05:27:47;101205.75;;;24.05;53.64
64889;BME280;51386;53.082;8.816;2022-08-19T05:30:16;101202.75;;;24.02;53.58
64889;BME280;51386;53.082;8.816;2022-08-19T05:32:47;101213.75;;;24.00;53.72
64889;BME280;51386;53.082;8.816;2022-08-19T05:35:15;101219.97;;;24.01;53.79
64889;BME280;51386;53.082;8.816;2022-08-19T05:37:42;101220.25;;;24.04;53.66
64889;BME280;51386;53.082;8.816;2022-08-19T05:40:10;101225.78;;;24.14;53.84
64889;BME280;51386;53.082;8.816;2022-08-19T05:42:38;101219.44;;;24.26;54.15
64889;BME280;51386;53.082;8.816;2022-08-19T05:45:07;101214.44;;;24.34;53.12
64889;BME280;51386;53.082;8.816;2022-08-19T05:47:35;101209.28;;;24.33;53.03
64889;BME280;51386;53.082;8.816;2022-08-19T05:50:10;101197.97;;;24.31;53.17
64889;BME280;51386;53.082;8.816;2022-08-19T05:52:38;101193.91;;;24.28;53.19
64889;BME280;51386;53.082;8.816;2022-08-19T05:55:16;101188.75;;;24.21;52.93
64889;BME280;51386;53.082;8.816;2022-08-19T05:57:44;101189.75;;;24.15;52.80
64889;BME280;51386;53.082;8.816;2022-08-19T06:00:13;101188.13;;;24.14;53.01
64889;BME280;51386;53.082;8.816;2022-08-19T06:02:41;101182.47;;;24.16;53.57
64889;BME280;51386;53.082;8.816;2022-08-19T06:05:11;101188.19;;;24.19;53.12
64889;BME280;51386;53.082;8.816;2022-08-19T06:07:39;101190.94;;;24.25;53.13
64889;BME280;51386;53.082;8.816;2022-08-19T06:10:10;101197.47;;;24.34;52.94
64889;BME280;51386;53.082;8.816;2022-08-19T06:12:39;101209.47;;;24.48;53.37
64889;BME280;51386;53.082;8.816;2022-08-19T06:15:09;101204.72;;;24.60;52.72
64889;BME280;51386;53.082;8.816;2022-08-19T06:17:37;101198.91;;;24.73;52.08
64889;BME280;51386;53.082;8.816;2022-08-19T06:20:10;101209.50;;;24.79;51.98
64889;BME280;51386;53.082;8.816;2022-08-19T06:22:41;101209.25;;;24.81;51.94
64889;BME280;51386;53.082;8.816;2022-08-19T06:25:10;101210.88;;;24.82;51.92
64889;BME280;51386;53.082;8.816;2022-08-19T06:27:38;101211.94;;;24.81;51.15
64889;BME280;51386;53.082;8.816;2022-08-19T06:30:26;101213.53;;;24.77;51.84
64889;BME280;51386;53.082;8.816;2022-08-19T06:32:54;101217.25;;;24.76;51.61
64889;BME280;51386;53.082;8.816;2022-08-19T06:35:23;101219.72;;;24.77;51.88
64889;BME280;51386;53.082;8.816;2022-08-19T06:37:50;101227.56;;;24.79;51.42
64889;BME280;51386;53.082;8.816;2022-08-19T06:40:18;101227.28;;;24.80;51.85
64889;BME280;51386;53.082;8.816;2022-08-19T06:42:45;101224.34;;;24.82;51.20
64889;BME280;51386;53.082;8.816;2022-08-19T06:45:21;101221.72;;;24.92;51.59
64889;BME280;51386;53.082;8.816;2022-08-19T06:47:51;101218.31;;;25.02;51.40
64889;BME280;51386;53.082;8.816;2022-08-19T06:50:24;101223.50;;;25.13;50.78
64889;BME280;51386;53.082;8.816;2022-08-19T06:52:52;101218.69;;;25.20;50.96
64889;BME280;51386;53.082;8.816;2022-08-19T06:55:20;101219.81;;;25.24;50.55
64889;BME280;51386;53.082;8.816;2022-08-19T06:57:47;101221.44;;;25.25;50.27
64889;BME280;51386;53.082;8.816;2022-08-19T07:00:17;101228.97;;;25.23;49.74
64889;BME280;51386;53.082;8.816;2022-08-19T07:02:45;101227.91;;;25.29;49.86
64889;BME280;51386;53.082;8.816;2022-08-19T07:05:24;101232.28;;;25.35;49.76
64889;BME280;51386;53.082;8.816;2022-08-19T07:07:52;101231.25;;;25.41;49.96
64889;BME280;51386;53.082;8.816;2022-08-19T07:10:23;101230.75;;;25.44;49.43
64889;BME280;51386;53.082;8.816;2022-08-19T07:12:52;101229.13;;;25.43;49.00
64889;BME280;51386;53.082;8.816;2022-08-19T07:15:19;101237.22;;;25.43;48.84
64889;BME280;51386;53.082;8.816;2022-08-19T07:17:48;101230.75;;;25.44;48.89
64889;BME280;51386;53.082;8.816;2022-08-19T07:20:19;101243.22;;;25.50;48.99
64889;BME280;51386;53.082;8.816;2022-08-19T07:22:48;101242.69;;;25.59;48.92
64889;BME280;51386;53.082;8.816;2022-08-19T07:25:16;101247.84;;;25.65;48.72
64889;BME280;51386;53.082;8.816;2022-08-19T07:27:44;101245.22;;;25.75;48.13
64889;BME280;51386;53.082;8.816;2022-08-19T07:30:20;101249.84;;;25.85;48.61
64889;BME280;51386;53.082;8.816;2022-08-19T07:32:52;101253.41;;;25.95;47.90
64889;BME280;51386;53.082;8.816;2022-08-19T07:35:20;101250.75;;;26.05;48.25
64889;BME280;51386;53.082;8.816;2022-08-19T07:37:49;101256.22;;;26.20;47.44
64889;BME280;51386;53.082;8.816;2022-08-19T07:40:16;101263.34;;;26.52;47.08
64889;BME280;51386;53.082;8.816;2022-08-19T07:42:43;101270.16;;;27.20;46.04
64889;BME280;51386;53.082;8.816;2022-08-19T07:45:11;101276.06;;;27.67;44.33
64889;BME280;51386;53.082;8.816;2022-08-19T07:47:38;101283.56;;;28.05;43.54
64889;BME280;51386;53.082;8.816;2022-08-19T07:50:19;101284.09;;;28.66;42.36
64889;BME280;51386;53.082;8.816;2022-08-19T07:52:49;101289.66;;;29.24;40.95
64889;BME280;51386;53.082;8.816;2022-08-19T07:55:25;101284.88;;;29.92;39.20
64889;BME280;51386;53.082;8.816;2022-08-19T07:58:11;101293.66;;;30.68;37.98
64889;BME280;51386;53.082;8.816;2022-08-19T08:00:40;101292.09;;;31.32;37.61
64889;BME280;51386;53.082;8.816;2022-08-19T08:03:07;101285.16;;;31.85;36.23
64889;BME280;51386;53.082;8.816;2022-08-19T08:05:35;101281.06;;;32.24;35.11
64889;BME280;51386;53.082;8.816;2022-08-19T08:08:23;101282.31;;;32.89;33.68
64889;BME280;51386;53.082;8.816;2022-08-19T08:11:19;101281.75;;;33.93;32.50
64889;BME280;51386;53.082;8.816;2022-08-19T08:13:50;101269.78;;;35.14;30.66
64889;BME280;51386;53.082;8.816;2022-08-19T08:16:32;101281.44;;;35.66;28.74
64889;BME280;51386;53.082;8.816;2022-08-19T08:19:00;101288.25;;;35.43;29.44
64889;BME280;51386;53.082;8.816;2022-08-19T08:21:28;101296.88;;;34.98;29.31
64889;BME280;51386;53.082;8.816;2022-08-19T08:23:57;101293.53;;;34.58;29.93
64889;BME280;51386;53.082;8.816;2022-08-19T08:26:29;101306.50;;;34.27;30.25
64889;BME280;51386;53.082;8.816;2022-08-19T08:29:00;101300.41;;;33.91;30.28
64889;BME280;51386;53.082;8.816;2022-08-19T08:31:40;101302.94;;;33.79;30.92
64889;BME280;51386;53.082;8.816;2022-08-19T08:34:08;101302.19;;;33.87;30.55
64889;BME280;51386;53.082;8.816;2022-08-19T08:36:38;101299.66;;;33.99;30.12
64889;BME280;51386;53.082;8.816;2022-08-19T08:39:11;101304.44;;;33.85;30.14
64889;BME280;51386;53.082;8.816;2022-08-19T08:41:47;101292.63;;;33.67;30.51
64889;BME280;51386;53.082;8.816;2022-08-19T08:44:22;101307.97;;;33.55;30.80
64889;BME280;51386;53.082;8.816;2022-08-19T08:46:57;101310.31;;;33.78;30.42
64889;BME280;51386;53.082;8.816;2022-08-19T08:49:33;101312.59;;;34.24;30.09
64889;BME280;51386;53.082;8.816;2022-08-19T08:52:11;101309.78;;;34.72;29.78
64889;BME280;51386;53.082;8.816;2022-08-19T08:54:46;101309.63;;;35.03;29.38
64889;BME280;51386;53.082;8.816;2022-08-19T08:57:27;101309.69;;;35.87;28.06
64889;BME280;51386;53.082;8.816;2022-08-19T09:00:12;101306.22;;;36.98;26.91
64889;BME280;51386;53.082;8.816;2022-08-19T09:02:42;101309.59;;;37.85;25.83
64889;BME280;51386;53.082;8.816;2022-08-19T09:05:10;101309.31;;;38.50;25.08
64889;BME280;51386;53.082;8.816;2022-08-19T09:07:53;101319.72;;;39.40;24.24
64889;BME280;51386;53.082;8.816;2022-08-19T09:10:33;101314.47;;;39.98;22.93
64889;BME280;51386;53.082;8.816;2022-08-19T09:13:23;101305.16;;;40.75;21.66
64889;BME280;51386;53.082;8.816;2022-08-19T09:16:08;101307.19;;;41.62;21.61
64889;BME280;51386;53.082;8.816;2022-08-19T09:18:43;101303.41;;;41.96;20.53
64889;BME280;51386;53.082;8.816;2022-08-19T09:21:10;101301.91;;;42.02;20.13
64889;BME280;51386;53.082;8.816;2022-08-19T09:23:38;101290.97;;;42.09;20.40
64889;BME280;51386;53.082;8.816;2022-08-19T09:26:14;101292.66;;;41.91;20.11
64889;BME280;51386;53.082;8.816;2022-08-19T09:28:44;101298.78;;;41.55;20.79
64889;BME280;51386;53.082;8.816;2022-08-19T09:31:23;101289.63;;;40.86;21.15
64889;BME280;51386;53.082;8.816;2022-08-19T09:33:52;101294.53;;;40.20;21.46
64889;BME280;51386;53.082;8.816;2022-08-19T09:36:26;101293.66;;;39.84;21.83
64889;BME280;51386;53.082;8.816;2022-08-19T09:39:02;101288.63;;;39.71;22.51
64889;BME280;51386;53.082;8.816;2022-08-19T09:41:43;101291.00;;;39.88;21.68
64889;BME280;51386;53.082;8.816;2022-08-19T09:44:13;101285.19;;;40.09;21.51
64889;BME280;51386;53.082;8.816;2022-08-19T09:46:41;101285.78;;;40.18;21.83
64889;BME280;51386;53.082;8.816;2022-08-19T09:49:09;101286.31;;;40.42;21.46
64889;BME280;51386;53.082;8.816;2022-08-19T09:51:36;101291.66;;;40.89;20.45
64889;BME280;51386;53.082;8.816;2022-08-19T09:54:05;101296.75;;;41.74;20.05
64889;BME280;51386;53.082;8.816;2022-08-19T09:56:37;101297.91;;;42.56;18.89
64889;BME280;51386;53.082;8.816;2022-08-19T09:59:10;101302.78;;;42.99;18.26
64889;BME280;51386;53.082;8.816;2022-08-19T10:01:39;101295.16;;;43.69;17.99
64889;BME280;51386;53.082;8.816;2022-08-19T10:04:06;101294.88;;;44.57;17.72
64889;BME280;51386;53.082;8.816;2022-08-19T10:06:50;101288.69;;;45.27;17.04
64889;BME280;51386;53.082;8.816;2022-08-19T10:09:21;101287.47;;;45.88;16.02
64889;BME280;51386;53.082;8.816;2022-08-19T10:12:02;101279.78;;;46.38;15.53
64889;BME280;51386;53.082;8.816;2022-08-19T10:14:31;101273.25;;;46.76;14.63
64889;BME280;51386;53.082;8.816;2022-08-19T10:17:01;101264.31;;;46.95;14.84
64889;BME280;51386;53.082;8.816;2022-08-19T10:19:47;101265.47;;;47.02;14.36
64889;BME280;51386;53.082;8.816;2022-08-19T10:22:22;101262.66;;;47.05;14.96
64889;BME280;51386;53.082;8.816;2022-08-19T10:24:52;101267.47;;;47.01;14.31
64889;BME280;51386;53.082;8.816;2022-08-19T10:27:19;101258.78;;;46.92;14.21
64889;BME280;51386;53.082;8.816;2022-08-19T10:29:48;101266.81;;;46.83;14.85
64889;BME280;51386;53.082;8.816;2022-08-19T10:32:15;101264.31;;;46.99;14.81
64889;BME280;51386;53.082;8.816;2022-08-19T10:34:43;101261.75;;;47.22;14.64
64889;BME280;51386;53.082;8.816;2022-08-19T10:37:16;101262.38;;;47.44;14.04
64889;BME280;51386;53.082;8.816;2022-08-19T10:39:54;101252.56;;;46.63;13.92
64889;BME280;51386;53.082;8.816;2022-08-19T10:42:22;101241.78;;;45.36;15.01
64889;BME280;51386;53.082;8.816;2022-08-19T10:44:51;101237.38;;;43.89;15.64
64889;BME280;51386;53.082;8.816;2022-08-19T10:47:18;101248.56;;;42.35;17.17
64889;BME280;51386;53.082;8.816;2022-08-19T10:49:57;101242.94;;;40.81;18.30
64889;BME280;51386;53.082;8.816;2022-08-19T10:53:04;101231.53;;;39.24;19.62
64889;BME280;51386;53.082;8.816;2022-08-19T10:55:36;101233.44;;;38.25;20.80
64889;BME280;51386;53.082;8.816;2022-08-19T10:58:22;101245.06;;;37.34;21.60
64889;BME280;51386;53.082;8.816;2022-08-19T11:00:57;101235.66;;;36.57;22.63
64889;BME280;51386;53.082;8.816;2022-08-19T11:03:27;101243.38;;;35.93;23.37
64889;BME280;51386;53.082;8.816;2022-08-19T11:05:59;101245.69;;;35.45;23.87
64889;BME280;51386;53.082;8.816;2022-08-19T11:08:27;101241.00;;;35.08;23.79
64889;BME280;51386;53.082;8.816;2022-08-19T11:10:55;101241.00;;;34.91;23.90
64889;BME280;51386;53.082;8.816;2022-08-19T11:13:28;101242.63;;;34.83;23.99
64889;BME280;51386;53.082;8.816;2022-08-19T11:15:59;101239.50;;;35.02;23.66
64889;BME280;51386;53.082;8.816;2022-08-19T11:18:38;101235.59;;;35.37;23.50
64889;BME280;51386;53.082;8.816;2022-08-19T11:21:08;101232.09;;;35.66;22.65
64889;BME280;51386;53.082;8.816;2022-08-19T11:23:36;101236.31;;;35.63;22.83
64889;BME280;51386;53.082;8.816;2022-08-19T11:26:04;101236.19;;;35.51;23.01
64889;BME280;51386;53.082;8.816;2022-08-19T11:28:32;101224.97;;;35.27;23.22
64889;BME280;51386;53.082;8.816;2022-08-19T11:31:01;101231.31;;;35.02;22.96
64889;BME280;51386;53.082;8.816;2022-08-19T11:33:30;101230.59;;;34.76;23.06
64889;BME280;51386;53.082;8.816;2022-08-19T11:35:59;101228.97;;;34.57;23.60
64889;BME280;51386;53.082;8.816;2022-08-19T11:38:27;101225.09;;;34.41;23.41
64889;BME280;51386;53.082;8.816;2022-08-19T11:40:57;101218.81;;;34.24;23.92
64889;BME280;51386;53.082;8.816;2022-08-19T11:43:24;101217.34;;;34.09;24.16
64889;BME280;51386;53.082;8.816;2022-08-19T11:45:53;101209.75;;;33.97;24.28
64889;BME280;51386;53.082;8.816;2022-08-19T11:48:24;101213.28;;;33.89;24.45
64889;BME280;51386;53.082;8.816;2022-08-19T11:50:53;101218.72;;;33.81;24.63
64889;BME280;51386;53.082;8.816;2022-08-19T11:53:24;101209.88;;;33.84;24.82
64889;BME280;51386;53.082;8.816;2022-08-19T11:55:53;101210.22;;;33.91;24.75
64889;BME280;51386;53.082;8.816;2022-08-19T11:58:23;101203.97;;;33.99;24.85
64889;BME280;51386;53.082;8.816;2022-08-19T12:00:52;101212.53;;;34.15;24.38
64889;BME280;51386;53.082;8.816;2022-08-19T12:03:24;101205.97;;;34.16;24.31
64889;BME280;51386;53.082;8.816;2022-08-19T12:05:53;101203.03;;;34.12;24.22
64889;BME280;51386;53.082;8.816;2022-08-19T12:08:20;101200.25;;;33.95;24.46
64889;BME280;51386;53.082;8.816;2022-08-19T12:10:48;101192.34;;;33.76;24.20
64889;BME280;51386;53.082;8.816;2022-08-19T12:13:15;101198.28;;;33.70;23.87
64889;BME280;51386;53.082;8.816;2022-08-19T12:15:46;101206.97;;;33.72;23.62
64889;BME280;51386;53.082;8.816;2022-08-19T12:18:14;101195.06;;;33.68;24.10
64889;BME280;51386;53.082;8.816;2022-08-19T12:20:43;101204.53;;;33.62;24.29
64889;BME280;51386;53.082;8.816;2022-08-19T12:23:13;101187.28;;;33.53;24.36
64889;BME280;51386;53.082;8.816;2022-08-19T12:25:46;101189.50;;;33.42;23.88
64889;BME280;51386;53.082;8.816;2022-08-19T12:28:18;101192.31;;;33.28;24.58
64889;BME280;51386;53.082;8.816;2022-08-19T12:30:46;101194.22;;;33.19;24.72
64889;BME280;51386;53.082;8.816;2022-08-19T12:33:14;101201.56;;;33.10;25.37
64889;BME280;51386;53.082;8.816;2022-08-19T12:35:46;101200.88;;;33.05;25.65
64889;BME280;51386;53.082;8.816;2022-08-19T12:38:14;101202.94;;;32.99;25.91
64889;BME280;51386;53.082;8.816;2022-08-19T12:40:45;101203.88;;;32.95;25.69
64889;BME280;51386;53.082;8.816;2022-08-19T12:43:14;101200.81;;;32.96;25.49
64889;BME280;51386;53.082;8.816;2022-08-19T12:45:42;101198.41;;;32.95;25.66
64889;BME280;51386;53.082;8.816;2022-08-19T12:48:13;101189.41;;;32.94;25.80
64889;BME280;51386;53.082;8.816;2022-08-19T12:53:36;101180.28;;;32.99;25.50
64889;BME280;51386;53.082;8.816;2022-08-19T12:56:06;101175.91;;;33.11;25.92
64889;BME280;51386;53.082;8.816;2022-08-19T12:58:39;101176.13;;;33.23;25.05
64889;BME280;51386;53.082;8.816;2022-08-19T13:01:17;101168.63;;;33.37;24.61
64889;BME280;51386;53.082;8.816;2022-08-19T13:03:50;101168.44;;;33.42;24.81
64889;BME280;51386;53.082;8.816;2022-08-19T13:06:21;101168.31;;;33.48;24.86
64889;BME280;51386;53.082;8.816;2022-08-19T13:08:48;101170.41;;;33.51;24.64
64889;BME280;51386;53.082;8.816;2022-08-19T13:11:18;101174.66;;;33.57;24.54
64889;BME280;51386;53.082;8.816;2022-08-19T13:13:49;101181.22;;;33.56;23.47
64889;BME280;51386;53.082;8.816;2022-08-19T13:16:19;101180.59;;;33.59;23.48